createdAt,value
2019-04-25T00:00:12.659Z,0.00
2019-04-25T00:01:12.664Z,0.00
2019-04-25T00:02:12.680Z,0.00
2019-04-25T00:03:12.684Z,0.00
2019-04-25T00:04:12.691Z,0.00
2019-04-25T00:05:12.697Z,0.00
2019-04-25T00:06:12.704Z,0.00
2019-04-25T00:07:12.718Z,0.00
2019-04-25T00:08:12.722Z,0.00
2019-04-25T00:09:12.735Z,0.00
2019-04-25T00:10:13.817Z,0.00
2019-04-25T00:11:12.747Z,0.00
2019-04-25T00:12:12.755Z,0.00
2019-04-25T00:13:12.761Z,0.00
2019-04-25T00:14:13.355Z,0.00
2019-04-25T00:15:12.778Z,0.00
2019-04-25T00:16:12.785Z,0.00
2019-04-25T00:17:12.797Z,0.00
2019-04-25T00:18:12.804Z,0.00
2019-04-25T00:19:12.813Z,0.00
2019-04-25T00:20:12.818Z,0.00
2019-04-25T00:21:12.821Z,0.00
2019-04-25T00:22:12.832Z,0.00
2019-04-25T00:23:12.843Z,0.00
2019-04-25T00:24:12.848Z,0.00
2019-04-25T00:25:17.115Z,0.00
2019-04-25T00:26:12.866Z,0.00
2019-04-25T00:27:12.875Z,0.00
2019-04-25T00:28:12.885Z,0.00
2019-04-25T00:29:13.279Z,0.00
2019-04-25T00:30:12.896Z,0.00
2019-04-25T00:31:12.912Z,0.00
2019-04-25T00:32:12.915Z,0.00
2019-04-25T00:33:12.923Z,0.00
2019-04-25T00:34:12.931Z,0.00
2019-04-25T00:35:12.936Z,0.00
2019-04-25T00:36:12.945Z,0.00
2019-04-25T00:37:14.011Z,0.00
2019-04-25T00:38:12.961Z,0.00
2019-04-25T00:39:12.969Z,0.00
2019-04-25T00:40:13.555Z,0.00
2019-04-25T00:41:12.982Z,0.00
2019-04-25T00:42:12.992Z,0.00
2019-04-25T00:43:13.001Z,0.00
2019-04-25T00:44:13.009Z,0.00
2019-04-25T00:45:13.997Z,0.00
2019-04-25T00:46:13.021Z,0.00
2019-04-25T00:47:13.031Z,0.00
2019-04-25T00:48:13.044Z,0.00
2019-04-25T00:49:13.048Z,0.00
2019-04-25T00:50:13.055Z,0.00
2019-04-25T00:51:13.066Z,0.00
2019-04-25T00:52:13.074Z,0.00
2019-04-25T00:53:13.081Z,0.00
2019-04-25T00:54:13.085Z,0.00
2019-04-25T00:55:16.923Z,0.00
2019-04-25T00:56:13.104Z,0.00
2019-04-25T00:57:13.112Z,0.00
2019-04-25T00:58:13.115Z,0.00
2019-04-25T00:59:14.028Z,0.00
2019-04-25T01:00:13.135Z,0.00
2019-04-25T01:01:13.142Z,0.00
2019-04-25T01:02:13.149Z,0.00
2019-04-25T01:03:13.159Z,0.00
2019-04-25T01:04:13.165Z,0.00
2019-04-25T01:05:13.171Z,0.00
2019-04-25T01:06:13.203Z,0.00
2019-04-25T01:07:13.187Z,0.00
2019-04-25T01:08:13.200Z,0.00
2019-04-25T01:09:13.203Z,0.00
2019-04-25T01:10:13.215Z,0.00
2019-04-25T01:11:13.220Z,0.00
2019-04-25T01:12:13.246Z,0.00
2019-04-25T01:13:13.234Z,0.00
2019-04-25T01:14:13.247Z,0.00
2019-04-25T01:15:13.251Z,0.00
2019-04-25T01:16:13.257Z,0.00
2019-04-25T01:17:13.268Z,0.00
2019-04-25T01:18:13.279Z,0.00
2019-04-25T01:19:13.493Z,0.00
2019-04-25T01:20:13.986Z,0.00
2019-04-25T01:21:14.127Z,0.00
2019-04-25T01:22:14.472Z,0.00
2019-04-25T01:23:13.759Z,0.00
2019-04-25T01:24:14.103Z,0.00
2019-04-25T01:25:13.801Z,0.00
2019-04-25T01:26:13.345Z,0.00
2019-04-25T01:27:13.597Z,0.00
2019-04-25T01:28:13.352Z,0.00
2019-04-25T01:29:13.631Z,0.00
2019-04-25T01:30:14.121Z,0.00
2019-04-25T01:31:13.799Z,0.00
2019-04-25T01:32:13.989Z,0.00
2019-04-25T01:33:13.573Z,0.00
2019-04-25T01:34:14.268Z,0.00
2019-04-25T01:35:13.984Z,0.00
2019-04-25T01:36:13.442Z,0.00
2019-04-25T01:37:13.922Z,0.00
2019-04-25T01:38:13.891Z,0.00
2019-04-25T01:39:14.373Z,0.00
2019-04-25T01:40:14.064Z,0.00
2019-04-25T01:41:14.579Z,0.00
2019-04-25T01:42:13.869Z,0.00
2019-04-25T01:43:13.840Z,0.00
2019-04-25T01:44:14.306Z,0.00
2019-04-25T01:45:14.098Z,0.00
2019-04-25T01:46:14.810Z,0.00
2019-04-25T01:47:14.091Z,0.00
2019-04-25T01:48:13.731Z,0.00
2019-04-25T01:49:14.022Z,0.00
2019-04-25T01:50:13.767Z,0.00
2019-04-25T01:51:14.217Z,0.00
2019-04-25T01:52:13.744Z,0.00
2019-04-25T01:53:14.614Z,0.00
2019-04-25T01:54:14.130Z,0.00
2019-04-25T01:55:13.807Z,0.00
2019-04-25T01:56:13.668Z,0.00
2019-04-25T01:57:14.254Z,0.00
2019-04-25T01:58:13.783Z,0.00
2019-04-25T01:59:15.166Z,0.00
2019-04-25T02:00:14.011Z,0.00
2019-04-25T02:01:14.357Z,0.00
2019-04-25T02:02:14.052Z,0.00
2019-04-25T02:03:13.627Z,0.00
2019-04-25T02:04:13.631Z,0.00
2019-04-25T02:05:13.938Z,0.00
2019-04-25T02:06:13.777Z,0.00
2019-04-25T02:07:13.659Z,0.00
2019-04-25T02:08:14.281Z,0.00
2019-04-25T02:09:13.769Z,0.00
2019-04-25T02:10:13.681Z,0.00
2019-04-25T02:11:14.197Z,0.00
2019-04-25T02:12:15.450Z,0.00
2019-04-25T02:13:13.990Z,0.00
2019-04-25T02:14:13.799Z,0.00
2019-04-25T02:15:13.848Z,0.00
2019-04-25T02:16:14.239Z,0.00
2019-04-25T02:17:14.171Z,0.00
2019-04-25T02:18:13.784Z,0.00
2019-04-25T02:19:14.510Z,0.00
2019-04-25T02:20:14.056Z,0.00
2019-04-25T02:21:13.850Z,0.00
2019-04-25T02:22:14.558Z,0.00
2019-04-25T02:23:14.194Z,0.00
2019-04-25T02:24:13.796Z,0.00
2019-04-25T02:25:13.801Z,0.00
2019-04-25T02:26:16.751Z,0.00
2019-04-25T02:27:13.812Z,0.00
2019-04-25T02:28:15.789Z,0.00
2019-04-25T02:29:13.825Z,0.00
2019-04-25T02:30:15.489Z,0.00
2019-04-25T02:31:17.972Z,0.00
2019-04-25T02:32:14.555Z,0.00
2019-04-25T02:33:14.319Z,0.00
2019-04-25T02:34:17.452Z,0.00
2019-04-25T02:35:14.705Z,0.00
2019-04-25T02:36:15.036Z,0.00
2019-04-25T02:37:14.570Z,0.00
2019-04-25T02:38:14.667Z,0.00
2019-04-25T02:39:14.855Z,0.00
2019-04-25T02:40:14.217Z,0.00
2019-04-25T02:41:14.834Z,0.00
2019-04-25T02:42:16.541Z,0.00
2019-04-25T02:43:14.366Z,0.00
2019-04-25T02:44:14.545Z,0.00
2019-04-25T02:45:16.468Z,0.00
2019-04-25T02:46:15.133Z,0.00
2019-04-25T02:47:14.801Z,0.00
2019-04-25T02:48:14.255Z,0.00
2019-04-25T02:49:28.913Z,0.00
2019-04-25T02:50:15.102Z,0.00
2019-04-25T02:51:14.575Z,0.00
2019-04-25T02:52:17.746Z,0.00
2019-04-25T02:53:14.233Z,0.00
2019-04-25T02:54:14.155Z,0.00
2019-04-25T02:55:29.516Z,0.00
2019-04-25T02:56:30.455Z,0.00
2019-04-25T02:57:14.627Z,0.00
2019-04-25T02:58:14.252Z,0.00
2019-04-25T02:59:15.122Z,0.00
2019-04-25T03:00:14.961Z,0.00
2019-04-25T03:01:19.550Z,0.00
2019-04-25T03:02:15.449Z,0.00
2019-04-25T03:03:14.938Z,0.00
2019-04-25T03:04:14.567Z,0.00
2019-04-25T03:05:14.473Z,0.00
2019-04-25T03:06:15.028Z,0.00
2019-04-25T03:07:16.854Z,0.00
2019-04-25T03:08:14.356Z,0.00
2019-04-25T03:09:15.415Z,0.00
2019-04-25T03:10:14.990Z,0.00
2019-04-25T03:11:14.956Z,0.00
2019-04-25T03:12:26.904Z,0.00
2019-04-25T03:13:14.928Z,0.00
2019-04-25T03:14:14.735Z,0.00
2019-04-25T03:15:14.588Z,0.00
2019-04-25T03:16:14.248Z,0.00
2019-04-25T03:17:14.590Z,0.00
2019-04-25T03:18:15.203Z,0.00
2019-04-25T03:19:14.259Z,0.00
2019-04-25T03:20:14.892Z,0.00
2019-04-25T03:21:17.342Z,0.00
2019-04-25T03:22:15.025Z,0.00
2019-04-25T03:23:14.643Z,0.00
2019-04-25T03:24:16.794Z,0.00
2019-04-25T03:25:17.386Z,0.00
2019-04-25T03:26:14.267Z,0.00
2019-04-25T03:27:14.329Z,0.00
2019-04-25T03:28:15.645Z,0.00
2019-04-25T03:29:14.290Z,0.00
2019-04-25T03:30:17.656Z,0.00
2019-04-25T03:31:22.053Z,0.00
2019-04-25T03:32:19.341Z,0.00
2019-04-25T03:33:19.330Z,0.00
2019-04-25T03:34:19.835Z,0.00
2019-04-25T03:35:14.573Z,0.00
2019-04-25T03:36:17.065Z,0.00
2019-04-25T03:37:14.352Z,0.00
2019-04-25T03:38:14.555Z,0.00
2019-04-25T03:39:16.281Z,0.00
2019-04-25T03:40:14.380Z,0.00
2019-04-25T03:41:14.761Z,0.00
2019-04-25T03:42:14.389Z,0.00
2019-04-25T03:43:14.985Z,0.00
2019-04-25T03:44:14.405Z,0.00
2019-04-25T03:45:14.921Z,0.00
2019-04-25T03:46:14.421Z,4.00
2019-04-25T03:47:14.428Z,4.00
2019-04-25T03:48:14.433Z,4.00
2019-04-25T03:49:14.442Z,4.00
2019-04-25T03:50:14.450Z,4.00
2019-04-25T03:51:15.679Z,4.00
2019-04-25T03:52:14.467Z,8.00
2019-04-25T03:53:14.472Z,8.00
2019-04-25T03:54:14.485Z,8.00
2019-04-25T03:55:14.566Z,12.00
2019-04-25T03:56:14.714Z,16.00
2019-04-25T03:57:14.663Z,12.00
2019-04-25T03:58:14.683Z,16.00
2019-04-25T03:59:16.045Z,20.00
2019-04-25T04:00:14.712Z,24.00
2019-04-25T04:01:15.656Z,28.00
2019-04-25T04:02:15.241Z,32.00
2019-04-25T04:03:15.224Z,36.00
2019-04-25T04:04:16.305Z,44.00
2019-04-25T04:05:14.997Z,52.00
2019-04-25T04:06:15.626Z,56.00
2019-04-25T04:07:15.875Z,64.00
2019-04-25T04:08:15.727Z,72.00
2019-04-25T04:09:15.208Z,80.00
2019-04-25T04:10:15.518Z,88.00
2019-04-25T04:11:15.661Z,104.00
2019-04-25T04:12:15.646Z,112.00
2019-04-25T04:13:15.810Z,124.00
2019-04-25T04:14:15.722Z,132.00
2019-04-25T04:15:15.933Z,148.00
2019-04-25T04:16:15.617Z,164.00
2019-04-25T04:17:15.815Z,176.00
2019-04-25T04:18:17.053Z,192.00
2019-04-25T04:19:15.747Z,204.00
2019-04-25T04:20:15.899Z,224.00
2019-04-25T04:21:16.203Z,236.00
2019-04-25T04:22:15.419Z,256.00
2019-04-25T04:23:15.414Z,272.00
2019-04-25T04:24:15.208Z,288.00
2019-04-25T04:25:14.757Z,308.00
2019-04-25T04:26:14.725Z,332.00
2019-04-25T04:27:15.837Z,352.00
2019-04-25T04:28:14.945Z,372.00
2019-04-25T04:29:15.312Z,396.00
2019-04-25T04:30:15.367Z,420.00
2019-04-25T04:31:15.441Z,436.00
2019-04-25T04:32:15.997Z,460.00
2019-04-25T04:33:25.718Z,484.00
2019-04-25T04:34:15.618Z,504.00
2019-04-25T04:35:16.006Z,528.00
2019-04-25T04:36:17.289Z,552.00
2019-04-25T04:37:16.043Z,576.00
2019-04-25T04:38:15.530Z,600.00
2019-04-25T04:39:16.815Z,620.00
2019-04-25T04:40:16.953Z,636.00
2019-04-25T04:41:15.465Z,656.00
2019-04-25T04:42:15.180Z,672.00
2019-04-25T04:43:16.290Z,692.00
2019-04-25T04:44:15.618Z,712.00
2019-04-25T04:45:15.750Z,728.00
2019-04-25T04:46:17.130Z,744.00
2019-04-25T04:47:15.456Z,764.00
2019-04-25T04:48:15.525Z,780.00
2019-04-25T04:49:15.338Z,792.00
2019-04-25T04:50:15.398Z,812.00
2019-04-25T04:51:15.790Z,832.00
2019-04-25T04:52:15.815Z,844.00
2019-04-25T04:53:16.029Z,860.00
2019-04-25T04:54:15.511Z,872.00
2019-04-25T04:55:17.234Z,888.00
2019-04-25T04:56:15.607Z,904.00
2019-04-25T04:57:26.569Z,920.00
2019-04-25T04:58:16.103Z,932.00
2019-04-25T04:59:15.504Z,948.00
2019-04-25T05:00:15.595Z,960.00
2019-04-25T05:01:15.681Z,972.00
2019-04-25T05:02:16.099Z,988.00
2019-04-25T05:03:15.799Z,1000.00
2019-04-25T05:04:16.046Z,1012.00
2019-04-25T05:05:15.926Z,1024.00
2019-04-25T05:06:15.958Z,1036.00
2019-04-25T05:07:16.222Z,1044.00
2019-04-25T05:08:16.433Z,1060.00
2019-04-25T05:09:15.644Z,1072.00
2019-04-25T05:10:17.722Z,1080.00
2019-04-25T05:11:15.811Z,1092.00
2019-04-25T05:12:16.132Z,1100.00
2019-04-25T05:13:16.483Z,1116.00
2019-04-25T05:14:16.162Z,1124.00
2019-04-25T05:15:16.654Z,1132.00
2019-04-25T05:16:16.213Z,1144.00
2019-04-25T05:17:16.191Z,1152.00
2019-04-25T05:18:20.641Z,1164.00
2019-04-25T05:19:15.847Z,1172.00
2019-04-25T05:20:16.397Z,1180.00
2019-04-25T05:21:16.190Z,1192.00
2019-04-25T05:22:16.050Z,1200.00
2019-04-25T05:23:16.233Z,1208.00
2019-04-25T05:24:16.098Z,1216.00
2019-04-25T05:25:16.358Z,1228.00
2019-04-25T05:26:16.124Z,1236.00
2019-04-25T05:27:30.594Z,1244.00
2019-04-25T05:28:16.140Z,1252.00
2019-04-25T05:29:19.811Z,1260.00
2019-04-25T05:30:16.621Z,1268.00
2019-04-25T05:31:16.756Z,1276.00
2019-04-25T05:32:15.803Z,1284.00
2019-04-25T05:33:18.639Z,1296.00
2019-04-25T05:34:16.921Z,1300.00
2019-04-25T05:35:16.286Z,1308.00
2019-04-25T05:36:17.199Z,1316.00
2019-04-25T05:37:16.310Z,1324.00
2019-04-25T05:38:16.303Z,1332.00
2019-04-25T05:39:17.407Z,1336.00
2019-04-25T05:40:16.280Z,1344.00
2019-04-25T05:41:16.126Z,1348.00
2019-04-25T05:42:16.987Z,1356.00
2019-04-25T05:43:16.285Z,1356.00
2019-04-25T05:44:16.030Z,1364.00
2019-04-25T05:45:17.510Z,1372.00
2019-04-25T05:46:15.405Z,1376.00
2019-04-25T05:47:16.275Z,1380.00
2019-04-25T05:48:16.062Z,1384.00
2019-04-25T05:49:15.614Z,1392.00
2019-04-25T05:50:15.792Z,1392.00
2019-04-25T05:51:15.854Z,1404.00
2019-04-25T05:52:16.058Z,1408.00
2019-04-25T05:53:16.222Z,1412.00
2019-04-25T05:54:16.531Z,1412.00
2019-04-25T05:55:17.296Z,1420.00
2019-04-25T05:56:16.468Z,1428.00
2019-04-25T05:57:16.537Z,1432.00
2019-04-25T05:58:16.801Z,1436.00
2019-04-25T05:59:15.428Z,1440.00
2019-04-25T06:00:17.492Z,1444.00
2019-04-25T06:01:15.439Z,1452.00
2019-04-25T06:02:15.449Z,1456.00
2019-04-25T06:03:15.460Z,1456.00
2019-04-25T06:04:15.463Z,1464.00
2019-04-25T06:05:15.473Z,1468.00
2019-04-25T06:06:15.482Z,1472.00
2019-04-25T06:07:15.485Z,1476.00
2019-04-25T06:08:15.498Z,1480.00
2019-04-25T06:09:15.505Z,1484.00
2019-04-25T06:10:15.514Z,1488.00
2019-04-25T06:11:15.519Z,1488.00
2019-04-25T06:12:15.530Z,1492.00
2019-04-25T06:13:15.537Z,1500.00
2019-04-25T06:14:15.543Z,1500.00
2019-04-25T06:15:15.552Z,1504.00
2019-04-25T06:16:15.560Z,1508.00
2019-04-25T06:17:15.570Z,1508.00
2019-04-25T06:18:15.575Z,1508.00
2019-04-25T06:19:18.500Z,1512.00
2019-04-25T06:20:15.592Z,1512.00
2019-04-25T06:21:15.599Z,1516.00
2019-04-25T06:22:15.608Z,1520.00
2019-04-25T06:23:15.622Z,1520.00
2019-04-25T06:24:15.626Z,1528.00
2019-04-25T06:25:16.438Z,1528.00
2019-04-25T06:26:23.020Z,1528.00
2019-04-25T06:27:15.648Z,1532.00
2019-04-25T06:28:15.656Z,1536.00
2019-04-25T06:29:15.665Z,1540.00
2019-04-25T06:30:15.907Z,1548.00
2019-04-25T06:31:15.677Z,1552.00
2019-04-25T06:32:15.689Z,1552.00
2019-04-25T06:33:15.732Z,1556.00
2019-04-25T06:34:15.701Z,1556.00
2019-04-25T06:35:15.709Z,1560.00
2019-04-25T06:36:15.719Z,1560.00
2019-04-25T06:37:15.727Z,1564.00
2019-04-25T06:38:15.733Z,1568.00
2019-04-25T06:39:15.743Z,1568.00
2019-04-25T06:40:15.751Z,1572.00
2019-04-25T06:41:15.759Z,1572.00
2019-04-25T06:42:15.766Z,1572.00
2019-04-25T06:43:15.776Z,1576.00
2019-04-25T06:44:15.781Z,1580.00
2019-04-25T06:45:15.792Z,1584.00
2019-04-25T06:46:15.800Z,1588.00
2019-04-25T06:47:15.811Z,1592.00
2019-04-25T06:48:15.817Z,1592.00
2019-04-25T06:49:15.825Z,1592.00
2019-04-25T06:50:15.931Z,1596.00
2019-04-25T06:51:15.862Z,1604.00
2019-04-25T06:52:15.852Z,1604.00
2019-04-25T06:53:15.855Z,1608.00
2019-04-25T06:54:15.877Z,1608.00
2019-04-25T06:55:15.878Z,1616.00
2019-04-25T06:56:15.886Z,1616.00
2019-04-25T06:57:15.887Z,1620.00
2019-04-25T06:58:15.905Z,1624.00
2019-04-25T06:59:15.904Z,1624.00
2019-04-25T07:00:15.910Z,1624.00
2019-04-25T07:01:15.924Z,1628.00
2019-04-25T07:02:15.926Z,1628.00
2019-04-25T07:03:15.940Z,1636.00
2019-04-25T07:04:15.948Z,1636.00
2019-04-25T07:05:26.645Z,1644.00
2019-04-25T07:06:15.963Z,1648.00
2019-04-25T07:07:15.970Z,1648.00
2019-04-25T07:08:15.982Z,1652.00
2019-04-25T07:09:15.993Z,1652.00
2019-04-25T07:10:15.998Z,1656.00
2019-04-25T07:11:16.009Z,1660.00
2019-04-25T07:12:16.013Z,1660.00
2019-04-25T07:13:16.025Z,1664.00
2019-04-25T07:14:16.028Z,1668.00
2019-04-25T07:15:16.039Z,1668.00
2019-04-25T07:16:16.048Z,1672.00
2019-04-25T07:17:16.058Z,1676.00
2019-04-25T07:18:16.079Z,1680.00
2019-04-25T07:19:17.588Z,1680.00
2019-04-25T07:20:16.082Z,1688.00
2019-04-25T07:21:16.089Z,1688.00
2019-04-25T07:22:16.098Z,1692.00
2019-04-25T07:23:16.107Z,1692.00
2019-04-25T07:24:17.533Z,1696.00
2019-04-25T07:25:16.120Z,1700.00
2019-04-25T07:26:16.129Z,1704.00
2019-04-25T07:27:16.146Z,1704.00
2019-04-25T07:28:23.856Z,1708.00
2019-04-25T07:29:16.157Z,1712.00
2019-04-25T07:30:26.893Z,1716.00
2019-04-25T07:31:16.172Z,1716.00
2019-04-25T07:32:16.188Z,1716.00
2019-04-25T07:33:16.188Z,1720.00
2019-04-25T07:34:16.195Z,1720.00
2019-04-25T07:35:16.219Z,1724.00
2019-04-25T07:36:16.216Z,1724.00
2019-04-25T07:37:16.224Z,1732.00
2019-04-25T07:38:16.236Z,1740.00
2019-04-25T07:39:16.255Z,1740.00
2019-04-25T07:40:16.249Z,1744.00
2019-04-25T07:41:16.455Z,1744.00
2019-04-25T07:42:16.267Z,1744.00
2019-04-25T07:43:16.273Z,1752.00
2019-04-25T07:44:16.281Z,1760.00
2019-04-25T07:45:16.363Z,1752.00
2019-04-25T07:46:16.302Z,1752.00
2019-04-25T07:47:16.308Z,1756.00
2019-04-25T07:48:16.324Z,1760.00
2019-04-25T07:49:16.326Z,1764.00
2019-04-25T07:50:16.337Z,1768.00
2019-04-25T07:51:16.648Z,1768.00
2019-04-25T07:52:16.355Z,1772.00
2019-04-25T07:53:16.361Z,1776.00
2019-04-25T07:54:16.372Z,1780.00
2019-04-25T07:55:16.376Z,1784.00
2019-04-25T07:56:16.385Z,1788.00
2019-04-25T07:57:16.395Z,1788.00
2019-04-25T07:58:16.406Z,1792.00
2019-04-25T07:59:16.413Z,1792.00
2019-04-25T08:00:16.419Z,1800.00
2019-04-25T08:01:16.431Z,1804.00
2019-04-25T08:02:16.444Z,1812.00
2019-04-25T08:03:16.451Z,1816.00
2019-04-25T08:04:16.466Z,1816.00
2019-04-25T08:05:16.467Z,1816.00
2019-04-25T08:06:16.477Z,1820.00
2019-04-25T08:07:16.485Z,1828.00
2019-04-25T08:08:16.499Z,1832.00
2019-04-25T08:09:16.508Z,1832.00
2019-04-25T08:10:16.515Z,1836.00
2019-04-25T08:11:16.523Z,1840.00
2019-04-25T08:12:16.530Z,1848.00
2019-04-25T08:13:16.541Z,1852.00
2019-04-25T08:14:16.549Z,1860.00
2019-04-25T08:15:16.557Z,1864.00
2019-04-25T08:16:16.567Z,1864.00
2019-04-25T08:17:16.576Z,1864.00
2019-04-25T08:18:16.584Z,1868.00
2019-04-25T08:19:16.593Z,1872.00
2019-04-25T08:20:16.603Z,1880.00
2019-04-25T08:21:16.617Z,1880.00
2019-04-25T08:22:16.620Z,1888.00
2019-04-25T08:23:16.634Z,1884.00
2019-04-25T08:24:16.644Z,1888.00
2019-04-25T08:25:16.652Z,1892.00
2019-04-25T08:26:16.657Z,1900.00
2019-04-25T08:27:16.709Z,1904.00
2019-04-25T08:28:16.677Z,1908.00
2019-04-25T08:29:16.682Z,1912.00
2019-04-25T08:30:16.692Z,1912.00
2019-04-25T08:31:16.707Z,1920.00
2019-04-25T08:32:16.713Z,1924.00
2019-04-25T08:33:16.722Z,1928.00
2019-04-25T08:34:16.729Z,1932.00
2019-04-25T08:35:16.738Z,1928.00
2019-04-25T08:36:16.757Z,1940.00
2019-04-25T08:37:19.094Z,1948.00
2019-04-25T08:38:16.768Z,1948.00
2019-04-25T08:39:16.776Z,1956.00
2019-04-25T08:40:16.789Z,1964.00
2019-04-25T08:41:16.796Z,1968.00
2019-04-25T08:42:16.808Z,1976.00
2019-04-25T08:43:16.820Z,1980.00
2019-04-25T08:44:16.825Z,1980.00
2019-04-25T08:45:16.833Z,1988.00
2019-04-25T08:46:16.843Z,1992.00
2019-04-25T08:47:16.927Z,2000.00
2019-04-25T08:48:16.861Z,2000.00
2019-04-25T08:49:16.879Z,2008.00
2019-04-25T08:50:26.824Z,2012.00
2019-04-25T08:51:16.891Z,2016.00
2019-04-25T08:52:16.896Z,2024.00
2019-04-25T08:53:16.910Z,2032.00
2019-04-25T08:54:16.925Z,2036.00
2019-04-25T08:55:16.929Z,2040.00
2019-04-25T08:56:16.943Z,2052.00
2019-04-25T08:57:16.984Z,2052.00
2019-04-25T08:58:16.960Z,2056.00
2019-04-25T08:59:16.967Z,2068.00
2019-04-25T09:00:16.979Z,2072.00
2019-04-25T09:01:16.988Z,2072.00
2019-04-25T09:02:16.990Z,2076.00
2019-04-25T09:03:17.005Z,2084.00
2019-04-25T09:04:17.016Z,2100.00
2019-04-25T09:05:17.025Z,2112.00
2019-04-25T09:06:17.033Z,2116.00
2019-04-25T09:07:17.044Z,2124.00
2019-04-25T09:08:17.053Z,2140.00
2019-04-25T09:09:17.061Z,2152.00
2019-04-25T09:10:17.073Z,2148.00
2019-04-25T09:11:17.081Z,2140.00
2019-04-25T09:12:17.091Z,2156.00
2019-04-25T09:13:17.108Z,2172.00
2019-04-25T09:14:17.110Z,2136.00
2019-04-25T09:15:17.117Z,2216.00
2019-04-25T09:16:17.132Z,2248.00
2019-04-25T09:17:17.140Z,2288.00
2019-04-25T09:18:17.151Z,2316.00
2019-04-25T09:19:17.157Z,2364.00
2019-04-25T09:20:17.173Z,2428.00
2019-04-25T09:21:17.186Z,2496.00
2019-04-25T09:22:17.196Z,2508.00
2019-04-25T09:23:17.198Z,2652.00
2019-04-25T09:24:17.211Z,2676.00
2019-04-25T09:25:17.227Z,2700.00
2019-04-25T09:26:17.230Z,2864.00
2019-04-25T09:27:17.240Z,2972.00
2019-04-25T09:28:17.250Z,3004.00
2019-04-25T09:29:19.748Z,3104.00
2019-04-25T09:30:17.268Z,3224.00
2019-04-25T09:31:17.280Z,3256.00
2019-04-25T09:32:17.291Z,3408.00
2019-04-25T09:33:17.357Z,3660.00
2019-04-25T09:34:17.305Z,3808.00
2019-04-25T09:35:20.065Z,3940.00
2019-04-25T09:36:17.329Z,3916.00
2019-04-25T09:37:17.339Z,4088.00
2019-04-25T09:38:17.355Z,4392.00
2019-04-25T09:39:17.359Z,4356.00
2019-04-25T09:40:17.371Z,4392.00
2019-04-25T09:41:17.376Z,4360.00
2019-04-25T09:42:17.395Z,4416.00
2019-04-25T09:43:17.397Z,4612.00
2019-04-25T09:44:17.410Z,5064.00
2019-04-25T09:45:17.422Z,5208.00
2019-04-25T09:46:17.437Z,5648.00
2019-04-25T09:47:17.444Z,5656.00
2019-04-25T09:48:17.453Z,5876.00
2019-04-25T09:49:17.460Z,6008.00
2019-04-25T09:50:17.473Z,6004.00
2019-04-25T09:51:17.482Z,6132.00
2019-04-25T09:52:17.496Z,6364.00
2019-04-25T09:53:23.588Z,6688.00
2019-04-25T09:54:17.511Z,7188.00
2019-04-25T09:55:17.526Z,7356.00
2019-04-25T09:56:17.536Z,7660.00
2019-04-25T09:57:17.569Z,7772.00
2019-04-25T09:58:17.561Z,7940.00
2019-04-25T09:59:26.734Z,8316.00
2019-04-25T10:00:17.580Z,8712.00
2019-04-25T10:01:17.599Z,9112.00
2019-04-25T10:02:17.602Z,9144.00
2019-04-25T10:03:17.616Z,9352.00
2019-04-25T10:04:17.623Z,9544.00
2019-04-25T10:05:17.633Z,9676.00
2019-04-25T10:06:17.662Z,9796.00
2019-04-25T10:07:17.654Z,9812.00
2019-04-25T10:08:17.665Z,10012.00
2019-04-25T10:09:17.676Z,10296.00
2019-04-25T10:10:17.691Z,10428.00
2019-04-25T10:11:17.699Z,10416.00
2019-04-25T10:12:17.711Z,9988.00
2019-04-25T10:13:17.721Z,10244.00
2019-04-25T10:14:17.732Z,10396.00
2019-04-25T10:15:17.745Z,10488.00
2019-04-25T10:16:17.757Z,10804.00
2019-04-25T10:17:17.769Z,11120.00
2019-04-25T10:18:17.778Z,11296.00
2019-04-25T10:19:17.788Z,11260.00
2019-04-25T10:20:17.800Z,11160.00
2019-04-25T10:21:17.810Z,10804.00
2019-04-25T10:22:17.824Z,10712.00
2019-04-25T10:23:17.833Z,10824.00
2019-04-25T10:24:17.847Z,10928.00
2019-04-25T10:25:17.857Z,10860.00
2019-04-25T10:26:17.874Z,10840.00
2019-04-25T10:27:17.881Z,10732.00
2019-04-25T10:28:17.900Z,10224.00
2019-04-25T10:29:17.903Z,9516.00
2019-04-25T10:30:20.707Z,8492.00
2019-04-25T10:31:17.929Z,7628.00
2019-04-25T10:32:17.942Z,7244.00
2019-04-25T10:33:17.951Z,7004.00
2019-04-25T10:34:17.961Z,7304.00
2019-04-25T10:35:17.974Z,8160.00
2019-04-25T10:36:17.988Z,9092.00
2019-04-25T10:37:18.002Z,9984.00
2019-04-25T10:38:18.010Z,10836.00
2019-04-25T10:39:18.052Z,11400.00
2019-04-25T10:40:18.043Z,11724.00
2019-04-25T10:41:18.046Z,12196.00
2019-04-25T10:42:18.059Z,12568.00
2019-04-25T10:43:18.073Z,13048.00
2019-04-25T10:44:18.082Z,13728.00
2019-04-25T10:45:23.347Z,14380.00
2019-04-25T10:46:18.111Z,14824.00
2019-04-25T10:47:18.114Z,14572.00
2019-04-25T10:48:18.129Z,14164.00
2019-04-25T10:49:18.138Z,13736.00
2019-04-25T10:50:18.155Z,13000.00
2019-04-25T10:51:18.164Z,13336.00
2019-04-25T10:52:18.182Z,13772.00
2019-04-25T10:53:18.192Z,13948.00
2019-04-25T10:54:18.208Z,14520.00
2019-04-25T10:55:18.217Z,15572.00
2019-04-25T10:56:18.235Z,16704.00
2019-04-25T10:57:18.242Z,17024.00
2019-04-25T10:58:18.258Z,16768.00
2019-04-25T10:59:18.269Z,16352.00
2019-04-25T11:00:18.281Z,15712.00
2019-04-25T11:01:18.294Z,15776.00
2019-04-25T11:02:18.307Z,18528.00
2019-04-25T11:03:18.319Z,30368.00
2019-04-25T11:04:18.334Z,29504.00
2019-04-25T11:05:18.344Z,25632.00
2019-04-25T11:06:18.358Z,21952.00
2019-04-25T11:07:18.371Z,33024.00
2019-04-25T11:08:18.387Z,45344.00
2019-04-25T11:09:18.400Z,43328.00
2019-04-25T11:10:18.410Z,40704.00
2019-04-25T11:11:18.429Z,34720.00
2019-04-25T11:12:18.445Z,62464.00
2019-04-25T11:13:18.453Z,45920.00
2019-04-25T11:14:18.468Z,26208.00
2019-04-25T11:15:18.487Z,43104.00
2019-04-25T11:16:18.495Z,36000.00
2019-04-25T11:17:18.508Z,40192.00
2019-04-25T11:18:18.521Z,19232.00
2019-04-25T11:19:18.546Z,19712.00
2019-04-25T11:20:18.551Z,23584.00
2019-04-25T11:21:18.568Z,22848.00
2019-04-25T11:22:18.587Z,23200.00
2019-04-25T11:23:18.601Z,30464.00
2019-04-25T11:24:18.614Z,34624.00
2019-04-25T11:25:18.627Z,50144.00
2019-04-25T11:26:18.644Z,66240.00
2019-04-25T11:27:18.654Z,73280.00
2019-04-25T11:28:18.669Z,62720.00
2019-04-25T11:29:18.685Z,50304.00
2019-04-25T11:30:18.700Z,83456.00
2019-04-25T11:31:18.720Z,79104.00
2019-04-25T11:32:20.038Z,118688.00
2019-04-25T11:33:18.750Z,71296.00
2019-04-25T11:34:18.767Z,90784.00
2019-04-25T11:35:18.782Z,61792.00
2019-04-25T11:36:18.796Z,49568.00
2019-04-25T11:37:18.810Z,44704.00
2019-04-25T11:38:18.829Z,37792.00
2019-04-25T11:39:18.846Z,44320.00
2019-04-25T11:40:18.863Z,52512.00
2019-04-25T11:41:18.877Z,38272.00
2019-04-25T11:42:18.899Z,37728.00
2019-04-25T11:43:18.914Z,39840.00
2019-04-25T11:44:18.937Z,30144.00
2019-04-25T11:45:18.947Z,28896.00
2019-04-25T11:46:18.964Z,28160.00
2019-04-25T11:47:18.985Z,33152.00
2019-04-25T11:48:19.000Z,37600.00
2019-04-25T11:49:19.017Z,40288.00
2019-04-25T11:50:19.034Z,59104.00
2019-04-25T11:51:19.045Z,94848.00
2019-04-25T11:52:27.558Z,91840.00
2019-04-25T11:53:20.178Z,75744.00
2019-04-25T11:54:19.106Z,76064.00
2019-04-25T11:55:19.124Z,62016.00
2019-04-25T11:56:19.137Z,46496.00
2019-04-25T11:57:19.152Z,44544.00
2019-04-25T11:58:19.173Z,25728.00
2019-04-25T11:59:19.189Z,26880.00
2019-04-25T12:00:22.152Z,43808.00
2019-04-25T12:01:19.221Z,44384.00
2019-04-25T12:02:19.251Z,46592.00
2019-04-25T12:03:19.260Z,45696.00
2019-04-25T12:04:19.282Z,44576.00
2019-04-25T12:05:19.295Z,36832.00
2019-04-25T12:06:19.311Z,30720.00
2019-04-25T12:07:19.330Z,28352.00
2019-04-25T12:08:19.353Z,32640.00
2019-04-25T12:09:19.364Z,35776.00
2019-04-25T12:10:19.388Z,35904.00
2019-04-25T12:11:19.400Z,46048.00
2019-04-25T12:12:19.476Z,38304.00
2019-04-25T12:13:19.434Z,25792.00
2019-04-25T12:14:19.447Z,30240.00
2019-04-25T12:15:19.478Z,28320.00
2019-04-25T12:16:19.487Z,31648.00
2019-04-25T12:17:19.504Z,30560.00
2019-04-25T12:18:19.520Z,24096.00
2019-04-25T12:19:19.539Z,23904.00
2019-04-25T12:20:19.551Z,22240.00
2019-04-25T12:21:19.572Z,20160.00
2019-04-25T12:22:19.588Z,21664.00
2019-04-25T12:23:19.606Z,19328.00
2019-04-25T12:24:19.623Z,22592.00
2019-04-25T12:25:19.635Z,22688.00